Time;durP1;ratioP1;P1;durP2;ratioP2;P2;SDS_P1;SDS_P2;PMS_P1;PMS_P2;Temp;Humidity;BMP_temperature;BMP_pressure;BME280_temperature;BME280_humidity;BME280_pressure;Samples;Min_cycle;Max_cycle;Signal;HPM_P1;HPM_P2
2020/12/30 00:01:39;;;;;;;22.62;11.68;;;;;;;5.08;100.00;98776.35;1785152;80;21130;-76
2020/12/30 00:04:09;;;;;;;19.70;10.65;;;;;;;5.10;100.00;98774.71;1777154;79;21281;-76
2020/12/30 00:06:36;;;;;;;27.50;12.35;;;;;;;5.10;100.00;98790.06;1776783;80;21304;-75
2020/12/30 00:09:04;;;;;;;20.37;10.23;;;;;;;5.12;100.00;98787.14;1776760;81;21107;-75
2020/12/30 00:11:32;;;;;;;14.43;9.35;;;;;;;5.15;100.00;98793.62;1777012;79;21544;-75
2020/12/30 00:14:02;;;;;;;13.78;9.35;;;;;;;5.16;100.00;98798.77;1777033;81;21545;-75
2020/12/30 00:16:32;;;;;;;15.55;9.70;;;;;;;5.16;100.00;98795.34;1776750;81;21138;-75
2020/12/30 00:19:00;;;;;;;18.95;9.43;;;;;;;5.15;100.00;98791.06;1776812;80;21146;-75
2020/12/30 00:21:27;;;;;;;17.48;9.38;;;;;;;5.16;100.00;98800.46;1776943;81;21162;-75
2020/12/30 00:23:55;;;;;;;16.55;8.75;;;;;;;5.17;100.00;98788.14;1776971;81;21668;-75
2020/12/30 00:26:22;;;;;;;12.65;8.25;;;;;;;5.15;100.00;98796.18;1776922;81;21288;-76
2020/12/30 00:28:53;;;;;;;13.10;8.38;;;;;;;5.13;100.00;98796.54;1776948;79;21106;-76
2020/12/30 00:31:31;;;;;;;14.10;8.33;;;;;;;5.16;100.00;98800.46;1776898;80;21123;-75
2020/12/30 00:34:00;;;;;;;21.85;10.75;;;;;;;5.16;100.00;98794.06;1777471;79;21695;-76
2020/12/30 00:36:30;;;;;;;30.27;10.63;;;;;;;5.17;100.00;98788.14;1777043;81;21229;-76
2020/12/30 00:38:58;;;;;;;38.13;10.00;;;;;;;5.19;100.00;98784.81;1776879;80;21292;-76
2020/12/30 00:41:26;;;;;;;23.25;10.25;;;;;;;5.22;100.00;98787.88;1776914;81;21177;-76
2020/12/30 00:43:53;;;;;;;19.45;9.53;;;;;;;5.24;100.00;98787.51;1777048;81;21679;-75
2020/12/30 00:46:21;;;;;;;19.25;10.15;;;;;;;5.24;100.00;98782.39;1776859;81;21115;-75
2020/12/30 00:48:49;;;;;;;26.50;9.80;;;;;;;5.24;100.00;98791.34;1776864;81;21150;-76
2020/12/30 00:51:17;;;;;;;20.10;9.75;;;;;;;5.22;100.00;98789.15;1776898;81;21130;-75
2020/12/30 00:53:45;;;;;;;15.72;8.95;;;;;;;5.26;100.00;98784.98;1776989;80;21141;-76
2020/12/30 00:56:13;;;;;;;18.40;9.03;;;;;;;5.26;100.00;98787.53;1777145;79;21150;-76
2020/12/30 00:58:42;;;;;;;13.53;8.53;;;;;;;5.27;100.00;98788.01;1776868;80;21110;-75
2020/12/30 01:01:12;;;;;;;16.70;10.00;;;;;;;5.23;100.00;98790.88;1777105;81;21162;-75
2020/12/30 01:03:57;;;;;;;13.58;8.05;;;;;;;5.23;100.00;98787.03;1763738;80;21876;-75
2020/12/30 01:06:27;;;;;;;17.60;8.68;;;;;;;5.26;100.00;98788.81;1788170;80;21178;-76
2020/12/30 01:08:55;;;;;;;16.62;7.83;;;;;;;5.25;100.00;98787.09;1788339;80;21158;-75
2020/12/30 01:11:29;;;;;;;14.05;8.00;;;;;;;5.25;100.00;98789.23;1788128;80;21583;-75
2020/12/30 01:13:57;;;;;;;10.23;7.05;;;;;;;5.20;100.00;98787.81;1788155;80;21177;-76
2020/12/30 01:16:25;;;;;;;13.10;7.62;;;;;;;5.14;100.00;98785.09;1788137;80;21142;-74
2020/12/30 01:18:54;;;;;;;14.30;7.90;;;;;;;5.11;100.00;98782.41;1788411;80;21540;-75
2020/12/30 01:21:23;;;;;;;16.77;8.75;;;;;;;5.11;100.00;98794.34;1788335;80;21256;-75
2020/12/30 01:23:52;;;;;;;19.57;10.38;;;;;;;5.11;100.00;98810.55;1788098;80;21700;-76
2020/12/30 01:26:21;;;;;;;16.80;8.40;;;;;;;5.14;100.00;98805.94;1788116;80;21165;-74
2020/12/30 01:28:48;;;;;;;14.38;9.03;;;;;;;5.17;100.00;98807.33;1788126;80;21319;-75
2020/12/30 01:31:16;;;;;;;16.73;9.23;;;;;;;5.19;100.00;98798.88;1788387;80;21777;-75
2020/12/30 01:33:44;;;;;;;15.00;9.35;;;;;;;5.22;100.00;98807.91;1788319;80;21153;-75
2020/12/30 01:36:12;;;;;;;13.18;9.18;;;;;;;5.26;100.00;98802.47;1788101;80;21599;-76
2020/12/30 01:38:40;;;;;;;14.43;9.60;;;;;;;5.30;100.00;98806.86;1788407;80;21142;-75
2020/12/30 01:41:10;;;;;;;13.83;8.40;;;;;;;5.34;100.00;98814.20;1788139;80;21232;-74
2020/12/30 01:43:37;;;;;;;12.90;8.28;;;;;;;5.37;100.00;98811.34;1788399;80;21291;-75
2020/12/30 01:46:05;;;;;;;13.90;8.90;;;;;;;5.40;100.00;98810.14;1788186;80;21145;-75
2020/12/30 01:48:35;;;;;;;17.90;10.05;;;;;;;5.44;100.00;98803.41;1788101;80;21233;-74
2020/12/30 01:51:07;;;;;;;19.73;11.03;;;;;;;5.47;100.00;98802.24;1788120;80;21303;-75
2020/12/30 01:53:37;;;;;;;20.45;11.83;;;;;;;5.51;100.00;98798.06;1788295;80;21110;-76
2020/12/30 01:56:04;;;;;;;18.37;10.72;;;;;;;5.53;100.00;98793.87;1788300;80;21197;-75
2020/12/30 01:58:32;;;;;;;20.80;10.95;;;;;;;5.56;100.00;98793.52;1788100;80;21236;-74
2020/12/30 02:01:02;;;;;;;25.90;11.40;;;;;;;5.60;100.00;98783.84;1788384;80;21138;-75
2020/12/30 02:03:31;;;;;;;20.90;12.43;;;;;;;5.68;100.00;98789.17;1783165;80;21316;-77
2020/12/30 02:05:59;;;;;;;22.40;12.47;;;;;;;5.73;100.00;98780.34;1776958;81;21162;-74
2020/12/30 02:08:31;;;;;;;23.95;12.15;;;;;;;5.76;100.00;98787.68;1776817;81;21269;-75
2020/12/30 02:11:03;;;;;;;21.52;13.00;;;;;;;5.73;100.00;98786.33;1777061;81;21514;-76
2020/12/30 02:13:34;;;;;;;23.50;13.03;;;;;;;5.75;100.00;98783.39;1777240;80;21146;-75
2020/12/30 02:16:03;;;;;;;27.67;14.05;;;;;;;5.81;100.00;98775.87;1776992;79;21126;-75
2020/12/30 02:18:35;;;;;;;24.35;14.43;;;;;;;5.83;100.00;98779.34;1777205;81;21138;-75
2020/12/30 02:21:04;;;;;;;26.40;14.75;;;;;;;5.82;100.00;98780.57;1776937;81;21264;-74
2020/12/30 02:23:37;;;;;;;26.80;14.78;;;;;;;5.83;100.00;98775.50;1776772;81;21142;-75
2020/12/30 02:26:05;;;;;;;29.50;15.55;;;;;;;5.86;100.00;98779.42;1776945;81;21147;-75
2020/12/30 02:28:32;;;;;;;29.37;17.90;;;;;;;5.90;100.00;98792.30;1777062;81;21173;-75
2020/12/30 02:31:00;;;;;;;35.08;19.67;;;;;;;5.91;100.00;98792.77;1777002;81;21146;-75
2020/12/30 02:33:27;;;;;;;33.60;19.70;;;;;;;5.93;100.00;98780.84;1777047;81;21556;-74
2020/12/30 02:35:55;;;;;;;41.30;20.88;;;;;;;5.97;100.00;98776.30;1776771;81;21110;-74
2020/12/30 02:38:24;;;;;;;36.95;20.48;;;;;;;6.01;100.00;98779.41;1777077;81;21529;-74
2020/12/30 02:40:52;;;;;;;46.68;22.77;;;;;;;6.05;100.00;98773.52;1776783;79;21163;-75
2020/12/30 02:43:20;;;;;;;37.53;19.77;;;;;;;6.10;100.00;98775.78;1776691;79;21143;-74
2020/12/30 02:45:47;;;;;;;36.58;20.37;;;;;;;6.15;100.00;98778.05;1776804;81;21143;-75
2020/12/30 02:48:19;;;;;;;32.42;19.90;;;;;;;6.19;100.00;98785.42;1776991;80;21166;-77
2020/12/30 02:50:47;;;;;;;35.17;18.87;;;;;;;6.19;100.00;98787.56;1777048;81;21529;-74
2020/12/30 02:53:14;;;;;;;39.42;20.17;;;;;;;6.19;100.00;98785.00;1776740;81;21099;-75
2020/12/30 02:55:42;;;;;;;32.42;18.98;;;;;;;6.20;100.00;98776.47;1776976;79;21145;-74
2020/12/30 02:58:10;;;;;;;34.70;17.62;;;;;;;6.22;100.00;98779.95;1777048;81;21549;-74
2020/12/30 03:00:45;;;;;;;35.73;18.75;;;;;;;6.21;100.00;98776.95;1776673;81;21122;-75
2020/12/30 03:03:17;;;;;;;38.95;19.75;;;;;;;6.20;100.00;98768.78;1776842;79;21157;-76
2020/12/30 03:05:45;;;;;;;43.95;20.50;;;;;;;6.21;100.00;98757.73;1776782;80;21154;-75
2020/12/30 03:08:13;;;;;;;30.77;18.55;;;;;;;6.21;100.00;98760.71;1776881;81;21213;-76
2020/12/30 03:10:41;;;;;;;33.83;19.80;;;;;;;6.17;100.00;98757.61;1776778;79;21146;-75
2020/12/30 03:13:10;;;;;;;41.73;20.75;;;;;;;6.13;100.00;98757.95;1776771;81;21162;-75
2020/12/30 03:15:40;;;;;;;36.73;20.65;;;;;;;6.11;100.00;98763.84;1776751;79;21174;-74
2020/12/30 03:18:08;;;;;;;36.00;19.37;;;;;;;6.10;100.00;98764.26;1776921;79;21162;-74
2020/12/30 03:20:36;;;;;;;37.40;19.00;;;;;;;6.07;100.00;98760.34;1777041;81;21548;-74
2020/12/30 03:23:03;;;;;;;36.30;18.80;;;;;;;6.04;100.00;98755.15;1776949;79;21139;-77
2020/12/30 03:25:31;;;;;;;33.18;19.37;;;;;;;6.05;100.00;98750.47;1776771;81;21107;-75
2020/12/30 03:28:00;;;;;;;30.95;18.25;;;;;;;6.04;100.00;98748.74;1777022;79;21553;-75
2020/12/30 03:30:28;;;;;;;30.20;17.65;;;;;;;6.08;100.00;98741.57;1776858;81;21138;-74
2020/12/30 03:32:57;;;;;;;36.68;18.92;;;;;;;6.11;100.00;98742.95;1777686;80;21127;-74
2020/12/30 03:35:25;;;;;;;32.95;20.35;;;;;;;6.14;100.00;98743.45;1778314;81;21146;-75
2020/12/30 03:37:54;;;;;;;34.40;19.98;;;;;;;6.15;100.00;98744.75;1778174;81;21154;-75
2020/12/30 03:40:22;;;;;;;35.43;20.25;;;;;;;6.17;100.00;98745.66;1777144;81;21142;-75
2020/12/30 03:42:50;;;;;;;38.38;21.37;;;;;;;6.12;100.00;98742.11;1776800;81;21170;-74
2020/12/30 03:45:18;;;;;;;33.95;21.15;;;;;;;6.12;100.00;98735.70;1777119;79;21742;-74
2020/12/30 03:47:46;;;;;;;31.65;19.35;;;;;;;6.12;100.00;98731.86;1776931;81;21289;-74
2020/12/30 03:50:14;;;;;;;33.73;19.32;;;;;;;6.12;100.00;98733.14;1776798;81;21138;-74
2020/12/30 03:52:42;;;;;;;33.98;20.55;;;;;;;6.12;100.00;98734.84;1776992;81;21142;-75
2020/12/30 03:55:10;;;;;;;38.40;22.00;;;;;;;6.07;100.00;98740.71;1776927;80;21680;-75
2020/12/30 03:57:38;;;;;;;36.45;20.60;;;;;;;6.04;100.00;98742.34;1776715;79;21687;-74
2020/12/30 04:00:06;;;;;;;42.62;23.87;;;;;;;6.01;100.00;98730.74;1776866;81;21134;-75
2020/12/30 04:02:35;;;;;;;35.23;22.17;;;;;;;6.01;100.00;98726.91;1776056;80;21146;-74
2020/12/30 04:05:03;;;;;;;42.55;22.60;;;;;;;5.99;100.00;98742.64;1776861;79;21169;-74
2020/12/30 04:07:32;;;;;;;40.10;22.55;;;;;;;5.97;100.00;98750.69;1777219;81;21668;-76
2020/12/30 04:10:00;;;;;;;33.70;20.27;;;;;;;5.96;100.00;98747.27;1776838;81;21162;-75
2020/12/30 04:12:27;;;;;;;39.95;22.35;;;;;;;5.95;100.00;98751.06;1776918;79;21135;-75
2020/12/30 04:14:55;;;;;;;39.83;22.55;;;;;;;5.92;100.00;98750.95;1776900;81;21564;-75
2020/12/30 04:17:22;;;;;;;36.73;22.70;;;;;;;5.84;100.00;98750.33;1776890;81;21276;-75
2020/12/30 04:19:50;;;;;;;40.12;24.87;;;;;;;5.80;100.00;98757.50;1776880;81;21550;-75
2020/12/30 04:22:19;;;;;;;36.90;21.37;;;;;;;5.80;100.00;98751.09;1777127;79;21653;-75
2020/12/30 04:24:48;;;;;;;38.53;23.10;;;;;;;5.80;100.00;98758.78;1776859;79;21281;-74
2020/12/30 04:27:18;;;;;;;42.67;22.67;;;;;;;5.77;100.00;98758.67;1777261;81;21680;-73
2020/12/30 04:29:47;;;;;;;39.73;23.10;;;;;;;5.75;100.00;98755.23;1777295;79;21592;-75
2020/12/30 04:32:15;;;;;;;40.70;22.82;;;;;;;5.75;100.00;98759.46;1776882;81;21134;-75
2020/12/30 04:34:47;;;;;;;38.23;22.80;;;;;;;5.76;100.00;98765.91;1776861;80;21134;-75
2020/12/30 04:37:15;;;;;;;41.42;22.95;;;;;;;5.78;100.00;98762.98;1777116;81;21293;-75
2020/12/30 04:39:44;;;;;;;38.85;22.48;;;;;;;5.78;100.00;98755.31;1776973;81;21146;-75
2020/12/30 04:42:18;;;;;;;42.38;24.63;;;;;;;5.75;100.00;98750.50;1777134;81;21537;-77
2020/12/30 04:44:53;;;;;;;49.55;25.08;;;;;;;5.73;100.00;98768.40;1775592;79;21141;-75
2020/12/30 04:47:28;;;;;;;50.35;26.07;;;;;;;5.73;100.00;98747.92;1777012;80;21213;-74
2020/12/30 04:49:58;;;;;;;48.45;28.05;;;;;;;5.73;100.00;98762.00;1774421;80;21130;-74
2020/12/30 04:52:33;;;;;;;50.95;28.65;;;;;;;5.73;100.00;98750.48;1777076;81;21127;-75
2020/12/30 04:55:04;;;;;;;44.23;24.20;;;;;;;5.72;100.00;98747.44;1777091;81;21276;-75
2020/12/30 04:58:07;;;;;;;48.68;26.97;;;;;;;5.75;100.00;98759.46;1776858;79;21154;-76
2020/12/30 05:00:39;;;;;;;36.75;22.00;;;;;;;5.74;100.00;98759.88;1777031;81;21158;-75
2020/12/30 05:03:10;;;;;;;42.40;23.52;;;;;;;5.74;100.00;98768.84;1776824;81;21150;-77
2020/12/30 05:05:39;;;;;;;36.38;21.15;;;;;;;5.74;100.00;98762.44;1784656;79;21227;-75
2020/12/30 05:08:14;;;;;;;37.40;22.60;;;;;;;5.72;100.00;98758.11;1785106;79;21146;-75
2020/12/30 05:10:46;;;;;;;35.68;21.17;;;;;;;5.69;100.00;98756.33;1785198;80;21138;-76
2020/12/30 05:13:14;;;;;;;37.38;21.05;;;;;;;5.69;100.00;98749.06;1785109;80;21299;-76
2020/12/30 05:15:42;;;;;;;33.88;20.85;;;;;;;5.66;100.00;98750.72;1785260;80;21137;-74
2020/12/30 05:18:10;;;;;;;33.05;20.35;;;;;;;5.68;100.00;98762.29;1785028;80;21572;-75
2020/12/30 05:20:37;;;;;;;27.17;18.37;;;;;;;5.70;100.00;98758.47;1778344;79;21144;-75
2020/12/30 05:23:07;;;;;;;31.17;19.37;;;;;;;5.69;100.00;98767.85;1733905;80;21655;-74
2020/12/30 05:25:44;;;;;;;29.50;19.30;;;;;;;5.70;100.00;98766.15;1785100;80;21153;-75
2020/12/30 05:28:23;;;;;;;35.70;19.75;;;;;;;5.72;100.00;98765.78;1785066;79;21141;-76
2020/12/30 05:30:54;;;;;;;33.55;20.08;;;;;;;5.69;100.00;98769.55;1785297;80;21134;-75
2020/12/30 05:33:21;;;;;;;32.55;18.77;;;;;;;5.68;100.00;98776.37;1785397;79;21158;-76
2020/12/30 05:35:49;;;;;;;39.60;21.50;;;;;;;5.68;100.00;98782.77;1785171;80;21545;-75
2020/12/30 05:38:20;;;;;;;35.05;20.68;;;;;;;5.68;100.00;98790.45;1785333;80;21655;-75
2020/12/30 05:40:48;;;;;;;31.73;19.57;;;;;;;5.65;100.00;98785.25;1789487;79;21717;-75
2020/12/30 05:43:17;;;;;;;34.67;21.30;;;;;;;5.62;100.00;98792.44;1767773;80;21162;-75
2020/12/30 05:45:51;;;;;;;31.95;19.65;;;;;;;5.61;100.00;98791.95;1743439;81;21168;-74
2020/12/30 05:48:22;;;;;;;40.38;22.82;;;;;;;5.60;100.00;98790.66;1742858;81;21173;-75
2020/12/30 05:50:57;;;;;;;32.53;18.73;;;;;;;5.61;100.00;98790.68;1743421;81;21705;-74
2020/12/30 05:53:25;;;;;;;33.95;21.82;;;;;;;5.60;100.00;98785.54;1756980;80;21143;-75
2020/12/30 05:56:10;;;;;;;32.48;20.12;;;;;;;5.58;100.00;98786.77;1763296;80;21149;-74
2020/12/30 05:58:46;;;;;;;33.50;21.70;;;;;;;5.58;100.00;98789.74;1762022;80;21292;-75
2020/12/30 06:01:27;;;;;;;29.42;19.00;;;;;;;5.58;100.00;98789.74;1765740;80;21221;-75
2020/12/30 06:03:58;;;;;;;30.45;19.07;;;;;;;5.58;100.00;98791.02;1765988;79;21282;-75
2020/12/30 06:06:28;;;;;;;26.12;17.00;;;;;;;5.59;100.00;98796.58;1752904;80;21176;-76
2020/12/30 06:08:58;;;;;;;28.70;18.70;;;;;;;5.60;100.00;98795.78;1719375;82;21249;-75
2020/12/30 06:11:30;;;;;;;31.93;20.35;;;;;;;5.57;100.00;98796.95;1746545;82;21212;-77
2020/12/30 06:14:01;;;;;;;29.48;18.10;;;;;;;5.52;100.00;98787.88;1746310;82;21164;-76
2020/12/30 06:16:30;;;;;;;28.07;19.15;;;;;;;5.56;100.00;98792.66;1746228;82;21129;-76
2020/12/30 06:18:57;;;;;;;29.48;19.70;;;;;;;5.57;100.00;98808.47;1746250;82;21148;-62
2020/12/30 06:21:27;;;;;;;28.57;18.92;;;;;;;5.58;100.00;98812.78;1746049;82;21160;-60
2020/12/30 06:23:56;;;;;;;26.07;16.80;;;;;;;5.57;100.00;98809.36;1746227;82;21203;-60
2020/12/30 06:26:27;;;;;;;28.92;18.32;;;;;;;5.57;100.00;98809.74;1746132;82;21160;-62
2020/12/30 06:28:55;;;;;;;29.55;20.10;;;;;;;5.58;100.00;98817.90;1746134;82;21283;-63
2020/12/30 06:31:23;;;;;;;33.92;20.32;;;;;;;5.58;100.00;98810.22;1746410;82;21183;-63
2020/12/30 06:33:51;;;;;;;36.88;23.15;;;;;;;5.61;100.00;98803.90;1746108;82;21175;-62
2020/12/30 06:36:25;;;;;;;29.42;18.65;;;;;;;5.60;100.00;98799.20;1746222;82;21305;-63
2020/12/30 06:38:52;;;;;;;37.63;23.65;;;;;;;5.59;100.00;98796.16;1746098;82;21172;-62
2020/12/30 06:41:19;;;;;;;34.98;21.70;;;;;;;5.57;100.00;98789.27;1773293;80;21146;-62
2020/12/30 06:43:50;;;;;;;35.80;21.37;;;;;;;5.57;100.00;98799.50;1788390;80;21284;-63
2020/12/30 06:46:26;;;;;;;;;;;;;;;5.55;100.00;98798.63;1790667;80;21252;-63
2020/12/30 06:49:06;;;;;;;36.20;21.15;;;;;;;5.54;100.00;98800.29;1788170;80;20484;-62
2020/12/30 06:51:43;;;;;;;36.90;19.95;;;;;;;5.55;100.00;98783.27;1788140;80;21272;-63
2020/12/30 06:54:11;;;;;;;35.15;21.35;;;;;;;5.57;100.00;98785.42;1788066;80;21209;-63
2020/12/30 06:56:46;;;;;;;36.42;21.37;;;;;;;5.57;100.00;98771.34;1788194;80;21342;-62
2020/12/30 06:59:28;;;;;;;31.07;20.12;;;;;;;5.57;100.00;98770.96;1788367;80;21146;-63
2020/12/30 07:02:00;;;;;;;;;;;;;;;5.59;100.00;98766.73;1791174;80;21157;-62
2020/12/30 07:04:31;;;;;;;29.98;18.17;;;;;;;5.61;100.00;98772.77;1788203;80;20202;-64
2020/12/30 07:07:01;;;;;;;23.75;16.12;;;;;;;5.63;100.00;98775.38;1788041;80;21130;-62
2020/12/30 07:09:36;;;;;;;30.77;19.60;;;;;;;5.65;100.00;98772.45;1788205;80;21150;-63
2020/12/30 07:12:09;;;;;;;29.80;19.35;;;;;;;5.64;100.00;98773.26;1788307;80;21694;-63
2020/12/30 07:14:37;;;;;;;31.42;19.60;;;;;;;5.62;100.00;98767.22;1788027;80;21153;-63
2020/12/30 07:17:08;;;;;;;29.42;19.60;;;;;;;5.60;100.00;98767.20;1788335;80;21149;-63
2020/12/30 07:19:40;;;;;;;29.57;19.75;;;;;;;5.59;100.00;98776.10;1788417;80;21560;-64
2020/12/30 07:22:14;;;;;;;28.30;18.70;;;;;;;5.61;100.00;98784.70;1788066;80;21296;-63
2020/12/30 07:24:53;;;;;;;29.18;19.57;;;;;;;5.62;100.00;98772.34;1787994;80;21228;-63
2020/12/30 07:27:28;;;;;;;31.27;20.08;;;;;;;5.63;100.00;98779.22;1788036;80;21162;-64
2020/12/30 07:29:56;;;;;;;31.12;20.50;;;;;;;5.67;100.00;98782.30;1788050;80;21162;-63
2020/12/30 07:32:23;;;;;;;33.45;20.17;;;;;;;5.66;100.00;98775.03;1788090;80;21264;-64
2020/12/30 07:34:56;;;;;;;33.40;20.08;;;;;;;5.66;100.00;98772.89;1788337;80;21161;-63
2020/12/30 07:37:22;;;;;;;33.85;20.50;;;;;;;5.65;100.00;98775.02;1788022;80;21142;-63
2020/12/30 07:39:50;;;;;;;28.02;17.48;;;;;;;5.63;100.00;98776.66;1788118;80;21268;-63
2020/12/30 07:42:24;;;;;;;32.65;21.20;;;;;;;5.61;100.00;98777.02;1788207;80;21252;-64
2020/12/30 07:44:55;;;;;;;33.05;20.45;;;;;;;5.55;100.00;98780.70;1788354;80;21162;-63
2020/12/30 07:47:26;;;;;;;32.38;20.08;;;;;;;5.50;100.00;98777.15;1788242;80;21145;-62
2020/12/30 07:50:01;;;;;;;34.98;22.00;;;;;;;5.44;100.00;98788.05;1788118;80;21170;-63
2020/12/30 07:52:28;;;;;;;40.05;22.67;;;;;;;5.44;100.00;98786.77;1788214;80;21284;-64
2020/12/30 07:54:57;;;;;;;35.73;21.90;;;;;;;5.42;100.00;98785.47;1788259;80;21162;-63
2020/12/30 07:57:25;;;;;;;37.20;21.85;;;;;;;5.40;100.00;98788.39;1788344;80;21133;-64
2020/12/30 07:59:54;;;;;;;33.25;21.07;;;;;;;5.42;100.00;98783.33;1787932;80;21102;-63
2020/12/30 08:02:24;;;;;;;33.42;21.45;;;;;;;5.41;100.00;98780.30;1788001;80;21157;-62
2020/12/30 08:05:02;;;;;;;36.05;21.68;;;;;;;5.41;100.00;98774.77;1787451;79;21153;-64
2020/12/30 08:07:31;;;;;;;36.23;20.62;;;;;;;5.44;100.00;98790.23;1784523;79;21714;-63
2020/12/30 08:10:00;;;;;;;33.63;21.77;;;;;;;5.44;100.00;98790.23;1785157;79;21138;-63
2020/12/30 08:12:27;;;;;;;37.08;21.00;;;;;;;5.46;100.00;98786.41;1785153;79;21135;-64
2020/12/30 08:14:56;;;;;;;30.45;18.60;;;;;;;5.50;100.00;98782.27;1785418;80;21182;-64
2020/12/30 08:17:25;;;;;;;28.38;17.67;;;;;;;5.54;100.00;98786.21;1785172;80;21265;-64
2020/12/30 08:19:52;;;;;;;36.28;20.57;;;;;;;5.58;100.00;98787.18;1785157;80;21564;-64
2020/12/30 08:22:30;;;;;;;31.33;19.95;;;;;;;5.58;100.00;98782.06;1785359;80;21165;-63
2020/12/30 08:24:58;;;;;;;37.63;22.22;;;;;;;5.56;100.00;98784.98;1785102;80;21272;-64
2020/12/30 08:27:29;;;;;;;32.63;20.88;;;;;;;5.51;100.00;98777.59;1785072;79;21272;-64
2020/12/30 08:30:01;;;;;;;32.50;20.75;;;;;;;5.47;100.00;98775.38;1785047;80;21141;-64
2020/12/30 08:32:35;;;;;;;36.35;21.12;;;;;;;5.46;100.00;98769.78;1785110;79;21154;-64
2020/12/30 08:35:20;;;;;;;40.20;23.40;;;;;;;5.43;100.00;98782.08;1785169;80;21167;-63
2020/12/30 08:38:12;;;;;;;35.23;20.75;;;;;;;5.42;100.00;98782.91;1784875;79;21572;-63
2020/12/30 08:40:42;;;;;;;33.90;20.55;;;;;;;5.40;100.00;98776.88;1785369;80;21564;-64
2020/12/30 08:43:41;;;;;;;33.90;20.40;;;;;;;5.39;100.00;98796.02;1785245;80;21280;-64
2020/12/30 08:46:13;;;;;;;33.78;21.15;;;;;;;5.38;100.00;98791.31;1785079;80;21260;-65
2020/12/30 08:48:49;;;;;;;;;;;;;;;5.39;100.00;98794.34;1787673;79;21311;-64
2020/12/30 08:51:33;;;;;;;34.95;22.15;;;;;;;5.37;100.00;98787.03;1785123;80;20151;-65
2020/12/30 08:54:03;;;;;;;34.53;21.77;;;;;;;5.37;100.00;98775.52;1785301;80;21173;-64
2020/12/30 08:56:33;;;;;;;34.08;21.75;;;;;;;5.39;100.00;98772.59;1764442;80;21189;-64
2020/12/30 08:59:01;;;;;;;34.98;22.07;;;;;;;5.43;100.00;98762.88;1783799;80;21217;-64
2020/12/30 09:01:30;;;;;;;36.98;20.95;;;;;;;5.43;100.00;98754.34;1785405;80;21149;-64
2020/12/30 09:04:12;;;;;;;36.98;23.30;;;;;;;5.42;100.00;98754.77;1785001;79;21142;-65
2020/12/30 09:06:52;;;;;;;33.80;20.70;;;;;;;5.44;100.00;98753.13;1785358;79;21272;-64
2020/12/30 09:09:20;;;;;;;38.40;22.45;;;;;;;5.42;100.00;98753.48;1785432;79;21283;-64
2020/12/30 09:11:50;;;;;;;34.08;21.93;;;;;;;5.38;100.00;98751.66;1785102;80;21185;-64
2020/12/30 09:14:23;;;;;;;41.68;22.82;;;;;;;5.39;100.00;98750.84;1785287;80;21134;-65
2020/12/30 09:16:56;;;;;;;33.30;20.70;;;;;;;5.40;100.00;98756.41;1785061;80;21138;-64
2020/12/30 09:19:24;;;;;;;35.40;21.57;;;;;;;5.46;100.00;98759.96;1785193;80;21138;-64
2020/12/30 09:22:09;;;;;;;33.83;19.07;;;;;;;5.42;100.00;98748.78;1785099;80;21296;-64
2020/12/30 09:24:40;;;;;;;38.08;23.00;;;;;;;5.41;100.00;98747.89;1785047;80;21107;-66
2020/12/30 09:27:23;;;;;;;33.18;20.85;;;;;;;5.40;100.00;98738.49;1785327;79;21275;-65
2020/12/30 09:30:15;;;;;;;40.45;21.27;;;;;;;5.40;100.00;98741.47;1785284;80;21146;-64
2020/12/30 09:32:45;;;;;;;46.37;23.92;;;;;;;5.38;100.00;98735.02;1784950;79;21122;-64
2020/12/30 09:35:17;;;;;;;40.25;22.37;;;;;;;5.39;100.00;98734.22;1785286;80;21276;-65
2020/12/30 09:37:53;;;;;;;51.23;24.20;;;;;;;5.41;100.00;98727.84;1785429;80;21256;-64
2020/12/30 09:40:21;;;;;;;50.00;25.10;;;;;;;5.43;100.00;98730.89;1784982;80;21134;-65
2020/12/30 09:42:50;;;;;;;46.25;23.90;;;;;;;5.51;100.00;98722.14;1785026;80;21533;-64
2020/12/30 09:45:20;;;;;;;54.48;26.02;;;;;;;5.57;100.00;98718.88;1785064;80;21166;-65
2020/12/30 09:47:48;;;;;;;33.30;19.32;;;;;;;5.60;100.00;98726.66;1785628;80;21150;-64
2020/12/30 09:50:19;;;;;;;58.80;25.75;;;;;;;5.58;100.00;98717.65;1785532;79;21284;-64
2020/12/30 09:52:47;;;;;;;53.00;21.90;;;;;;;5.59;100.00;98712.11;1785219;80;21268;-65
2020/12/30 09:55:16;;;;;;;43.38;21.82;;;;;;;5.63;100.00;98708.82;1785364;80;21268;-65
2020/12/30 09:57:44;;;;;;;42.98;23.22;;;;;;;5.62;100.00;98707.06;1785057;80;21284;-65
2020/12/30 10:00:11;;;;;;;62.75;26.20;;;;;;;5.63;100.00;98706.26;1785067;80;21134;-64
2020/12/30 10:02:39;;;;;;;45.52;23.98;;;;;;;5.67;100.00;98704.21;1785079;80;21106;-64
2020/12/30 10:05:07;;;;;;;43.25;24.37;;;;;;;5.71;100.00;98702.20;1785059;80;21300;-65
2020/12/30 10:07:36;;;;;;;45.05;24.92;;;;;;;5.76;100.00;98704.88;1785363;80;21666;-64
2020/12/30 10:10:04;;;;;;;42.43;23.18;;;;;;;5.82;100.00;98701.19;1785074;80;21142;-64
2020/12/30 10:12:37;;;;;;;47.05;22.82;;;;;;;5.83;100.00;98711.48;1785360;80;21228;-64
2020/12/30 10:15:02;;;;;;;42.62;22.37;;;;;;;5.83;100.00;98711.48;1784621;80;21145;-64
2020/12/30 10:17:30;;;;;;;50.43;23.55;;;;;;;5.81;100.00;98708.01;1785037;80;21284;-64
2020/12/30 10:19:58;;;;;;;46.55;23.22;;;;;;;5.80;100.00;98702.84;1785135;80;21133;-64
2020/12/30 10:22:25;;;;;;;47.95;22.00;;;;;;;5.77;100.00;98685.70;1785161;80;21134;-64
2020/12/30 10:24:53;;;;;;;56.85;25.32;;;;;;;5.79;100.00;98683.19;1785354;79;21277;-64
2020/12/30 10:27:21;;;;;;;37.53;20.92;;;;;;;5.79;100.00;98675.09;1785050;80;21271;-64
2020/12/30 10:29:49;;;;;;;38.38;20.35;;;;;;;5.84;100.00;98681.20;1785039;80;21315;-64
2020/12/30 10:32:16;;;;;;;38.95;19.95;;;;;;;5.86;100.00;98696.19;1785064;80;21134;-64
2020/12/30 10:34:44;;;;;;;27.52;17.15;;;;;;;5.88;100.00;98676.61;1785174;80;21110;-64
2020/12/30 10:37:12;;;;;;;29.60;17.85;;;;;;;5.91;100.00;98663.44;1785432;80;21166;-64
2020/12/30 10:39:40;;;;;;;26.50;17.62;;;;;;;5.91;100.00;98681.36;1785231;80;21580;-64
2020/12/30 10:42:08;;;;;;;24.82;15.32;;;;;;;5.92;100.00;98675.41;1785134;80;21121;-64
2020/12/30 10:44:36;;;;;;;25.10;15.85;;;;;;;5.95;100.00;98670.38;1785285;80;21224;-64
2020/12/30 10:47:04;;;;;;;35.98;21.02;;;;;;;6.00;100.00;98657.27;1785239;80;21153;-64
2020/12/30 10:49:32;;;;;;;43.17;23.10;;;;;;;6.04;100.00;98668.05;1785016;79;21264;-64
2020/12/30 10:52:02;;;;;;;41.40;21.42;;;;;;;6.05;100.00;98671.05;1785054;79;21149;-64
2020/12/30 10:54:30;;;;;;;46.17;23.53;;;;;;;6.04;100.00;98666.77;1785470;79;21545;-64
2020/12/30 10:56:58;;;;;;;66.82;24.50;;;;;;;6.04;100.00;98666.36;1785033;79;21126;-64
2020/12/30 10:59:26;;;;;;;53.28;26.20;;;;;;;6.05;100.00;98668.07;1785088;80;21268;-63
2020/12/30 11:01:54;;;;;;;55.52;25.32;;;;;;;6.05;100.00;98656.55;1785240;80;21154;-64
2020/12/30 11:04:23;;;;;;;42.45;22.05;;;;;;;6.04;100.00;98653.97;1785029;80;21276;-64
2020/12/30 11:06:51;;;;;;;46.83;24.95;;;;;;;6.04;100.00;98662.93;1784121;80;21335;-64
2020/12/30 11:09:19;;;;;;;53.02;22.40;;;;;;;6.04;100.00;98657.81;1783508;80;21276;-64
2020/12/30 11:11:48;;;;;;;43.05;23.12;;;;;;;6.02;100.00;98647.52;1783191;80;21134;-64
2020/12/30 11:14:17;;;;;;;47.17;22.17;;;;;;;6.04;100.00;98642.44;1783392;80;21276;-64
2020/12/30 11:16:51;;;;;;;64.42;27.35;;;;;;;6.05;100.00;98637.34;1783280;80;21288;-64
2020/12/30 11:19:19;;;;;;;64.37;26.90;;;;;;;6.05;100.00;98632.21;1783547;80;21158;-64
2020/12/30 11:21:54;;;;;;;52.45;21.45;;;;;;;6.09;100.00;98621.22;1783466;80;21126;-64
2020/12/30 11:24:22;;;;;;;65.08;29.65;;;;;;;6.12;100.00;98631.95;1783260;80;21271;-64
2020/12/30 11:26:50;;;;;;;51.63;24.35;;;;;;;6.11;100.00;98628.06;1783267;80;21284;-64
2020/12/30 11:29:17;;;;;;;49.85;23.07;;;;;;;6.14;100.00;98623.03;1783184;80;21577;-64
2020/12/30 11:31:46;;;;;;;52.10;20.68;;;;;;;6.15;100.00;98624.75;1783055;80;21173;-64
2020/12/30 11:34:13;;;;;;;41.10;16.62;;;;;;;6.19;100.00;98627.84;1783465;79;21130;-64